createdAt,value
2022-10-28T00:01:09.491Z,5.53
2022-10-28T00:03:44.363Z,5.78
2022-10-28T00:06:18.534Z,5.35
2022-10-28T00:08:45.698Z,4.93
2022-10-28T00:11:17.539Z,5.78
2022-10-28T00:13:45.809Z,5.93
2022-10-28T00:16:14.121Z,5.72
2022-10-28T00:18:41.529Z,6.32
2022-10-28T00:21:14.966Z,6.47
2022-10-28T00:23:42.405Z,6.93
2022-10-28T00:26:12.683Z,6.30
2022-10-28T00:28:54.344Z,6.20
2022-10-28T00:31:23.337Z,6.47
2022-10-28T00:33:50.661Z,6.28
2022-10-28T00:36:26.141Z,6.68
2022-10-28T00:38:54.953Z,6.70
2022-10-28T00:41:24.974Z,7.03
2022-10-28T00:43:54.858Z,6.90
2022-10-28T00:46:37.721Z,7.38
2022-10-28T00:49:13.031Z,7.18
2022-10-28T00:51:40.016Z,6.30
2022-10-28T00:54:07.819Z,6.70
2022-10-28T00:56:39.847Z,6.50
2022-10-28T00:59:11.407Z,6.30
2022-10-28T01:01:38.203Z,6.45
2022-10-28T01:04:05.226Z,6.72
2022-10-28T01:06:31.922Z,6.47
2022-10-28T01:09:00.109Z,6.38
2022-10-28T01:11:42.325Z,7.25
2022-10-28T01:14:24.402Z,6.80
2022-10-28T01:17:07.847Z,7.30
2022-10-28T01:19:43.685Z,7.10
2022-10-28T01:22:25.552Z,6.75
2022-10-28T01:25:24.677Z,6.35
2022-10-28T01:28:00.480Z,6.30
2022-10-28T01:30:33.510Z,6.43
2022-10-28T01:33:15.462Z,7.00
2022-10-28T01:36:15.358Z,6.63
2022-10-28T01:38:54.591Z,6.25
2022-10-28T01:41:44.636Z,6.72
2022-10-28T01:44:23.773Z,6.70
2022-10-28T01:47:17.960Z,6.53
2022-10-28T01:49:56.150Z,6.47
2022-10-28T01:52:26.937Z,5.85
2022-10-28T01:55:18.670Z,6.43
2022-10-28T01:57:48.613Z,6.65
2022-10-28T02:00:15.882Z,6.53
2022-10-28T02:02:44.022Z,6.70
2022-10-28T02:05:39.029Z,6.22
2022-10-28T02:08:17.019Z,6.57
2022-10-28T02:11:00.189Z,6.32
2022-10-28T02:13:49.303Z,6.45
2022-10-28T02:16:43.973Z,6.82
2022-10-28T02:19:37.000Z,6.30
2022-10-28T02:22:21.061Z,6.57
2022-10-28T02:25:04.120Z,6.20
2022-10-28T02:27:37.544Z,6.97
2022-10-28T02:30:04.343Z,7.43
2022-10-28T02:32:38.503Z,6.68
2022-10-28T02:35:11.978Z,6.20
2022-10-28T02:37:42.069Z,7.18
2022-10-28T02:40:19.303Z,7.38
2022-10-28T02:42:50.526Z,7.15
2022-10-28T02:45:36.616Z,8.05
2022-10-28T02:48:36.700Z,7.78
2022-10-28T02:51:11.089Z,7.78
2022-10-28T02:53:56.947Z,7.88
2022-10-28T02:56:24.104Z,8.13
2022-10-28T02:58:51.191Z,8.60
2022-10-28T03:01:18.150Z,8.25
2022-10-28T03:03:45.295Z,9.52
2022-10-28T03:06:12.167Z,8.63
2022-10-28T03:08:38.882Z,8.43
2022-10-28T03:11:05.803Z,9.15
2022-10-28T03:13:32.601Z,9.57
2022-10-28T03:15:59.293Z,10.20
2022-10-28T03:18:27.193Z,10.27
2022-10-28T03:20:56.687Z,10.48
2022-10-28T03:23:25.741Z,12.57
2022-10-28T03:25:52.564Z,11.53
2022-10-28T03:28:19.323Z,12.43
2022-10-28T03:30:46.069Z,12.00
2022-10-28T03:33:12.850Z,12.40
2022-10-28T03:35:39.581Z,13.65
2022-10-28T03:38:06.354Z,13.03
2022-10-28T03:40:34.250Z,12.63
2022-10-28T03:43:01.118Z,11.63
2022-10-28T03:47:59.837Z,12.30
2022-10-28T03:50:26.564Z,11.40
2022-10-28T03:52:53.471Z,10.70
2022-10-28T03:55:20.209Z,10.90
2022-10-28T03:57:46.958Z,11.25
2022-10-28T04:00:14.586Z,10.27
2022-10-28T04:02:41.319Z,10.10
2022-10-28T04:05:08.552Z,11.13
2022-10-28T04:07:35.510Z,10.02
2022-10-28T04:10:02.377Z,10.95
2022-10-28T04:12:29.173Z,10.07
2022-10-28T04:14:55.977Z,10.77
2022-10-28T04:17:22.711Z,10.57
2022-10-28T04:19:49.631Z,10.18
2022-10-28T04:22:16.932Z,10.40
2022-10-28T04:24:44.751Z,10.80
2022-10-28T04:27:11.546Z,10.40
2022-10-28T04:29:38.303Z,10.73
2022-10-28T04:32:05.264Z,10.50
2022-10-28T04:34:32.008Z,11.03
2022-10-28T04:36:58.707Z,9.97
2022-10-28T04:39:25.505Z,10.77
2022-10-28T04:41:52.275Z,9.97
2022-10-28T04:44:18.983Z,9.45
2022-10-28T04:46:45.765Z,11.60
2022-10-28T04:49:12.548Z,10.40
2022-10-28T04:51:39.399Z,11.67
2022-10-28T04:54:06.481Z,10.50
2022-10-28T04:56:33.360Z,11.03
2022-10-28T04:59:00.115Z,12.20
2022-10-28T05:01:26.900Z,12.60
2022-10-28T05:03:53.969Z,10.53
2022-10-28T05:06:20.765Z,11.40
2022-10-28T05:08:47.502Z,12.30
2022-10-28T05:11:14.353Z,11.77
2022-10-28T05:13:41.296Z,11.93
2022-10-28T05:16:08.582Z,11.50
2022-10-28T05:18:35.373Z,11.63
2022-10-28T05:21:02.178Z,13.05
2022-10-28T05:23:30.775Z,11.60
2022-10-28T05:25:58.305Z,12.00
2022-10-28T05:28:25.259Z,12.53
2022-10-28T05:30:52.013Z,12.30
2022-10-28T05:33:18.780Z,12.03
2022-10-28T05:35:45.625Z,12.53
2022-10-28T05:38:12.443Z,12.07
2022-10-28T05:40:39.470Z,11.33
2022-10-28T05:43:06.225Z,11.93
2022-10-28T05:45:33.011Z,12.30
2022-10-28T05:47:59.959Z,11.83
2022-10-28T05:50:26.936Z,11.67
2022-10-28T05:52:55.893Z,11.77
2022-10-28T05:55:27.714Z,13.30
2022-10-28T05:57:55.819Z,12.27
2022-10-28T06:00:25.453Z,12.63
2022-10-28T06:02:52.576Z,12.45
2022-10-28T06:05:19.690Z,12.03
2022-10-28T06:07:46.406Z,12.23
2022-10-28T06:10:13.129Z,11.70
2022-10-28T06:12:38.547Z,11.37
2022-10-28T06:15:05.955Z,13.30
2022-10-28T06:17:32.788Z,12.53
2022-10-28T06:19:59.571Z,11.30
2022-10-28T06:22:26.299Z,11.98
2022-10-28T06:24:53.043Z,10.25
2022-10-28T06:27:19.796Z,11.02
2022-10-28T06:29:46.565Z,11.00
2022-10-28T06:32:13.272Z,10.38
2022-10-28T06:34:40.152Z,10.53
2022-10-28T06:37:08.963Z,10.73
2022-10-28T06:39:37.004Z,8.68
2022-10-28T06:42:03.974Z,8.50
2022-10-28T06:44:31.320Z,8.73
2022-10-28T06:46:59.697Z,9.15
2022-10-28T06:49:27.552Z,8.97
2022-10-28T06:51:54.242Z,9.02
2022-10-28T06:54:20.939Z,7.87
2022-10-28T06:56:47.880Z,8.38
2022-10-28T06:59:14.630Z,8.10
2022-10-28T07:01:41.832Z,8.48
2022-10-28T07:04:12.160Z,8.73
2022-10-28T07:06:39.715Z,8.20
2022-10-28T07:09:07.181Z,9.07
2022-10-28T07:11:34.138Z,7.88
2022-10-28T07:14:01.021Z,8.20
2022-10-28T07:16:27.843Z,8.50
2022-10-28T07:18:54.535Z,7.87
2022-10-28T07:21:24.390Z,8.20
2022-10-28T07:23:51.258Z,8.55
2022-10-28T07:26:17.994Z,7.75
2022-10-28T07:28:44.736Z,8.38
2022-10-28T07:33:43.525Z,7.60
2022-10-28T07:36:10.539Z,7.97
2022-10-28T07:38:37.380Z,8.48
2022-10-28T07:41:09.373Z,7.57
2022-10-28T07:43:37.762Z,7.63
2022-10-28T07:46:06.293Z,7.45
2022-10-28T07:48:36.390Z,8.25
2022-10-28T07:51:05.021Z,7.07
2022-10-28T07:53:32.344Z,7.90
2022-10-28T07:56:01.722Z,7.20
2022-10-28T07:58:29.086Z,7.28
2022-10-28T08:00:56.101Z,7.10
2022-10-28T08:03:31.212Z,7.15
2022-10-28T08:06:11.724Z,7.28
2022-10-28T08:08:39.350Z,6.60
2022-10-28T08:11:14.224Z,7.13
2022-10-28T08:13:41.644Z,6.93
2022-10-28T08:16:09.217Z,6.10
2022-10-28T08:18:36.806Z,5.95
2022-10-28T08:21:05.139Z,5.88
2022-10-28T08:23:32.438Z,5.65
2022-10-28T08:25:59.304Z,5.20
2022-10-28T08:28:26.063Z,6.03
2022-10-28T08:31:08.363Z,5.10
2022-10-28T08:33:38.009Z,4.80
2022-10-28T08:36:05.977Z,4.60
2022-10-28T08:38:32.838Z,4.82
2022-10-28T08:41:05.577Z,4.95
2022-10-28T08:43:57.562Z,4.88
2022-10-28T08:46:39.551Z,4.40
2022-10-28T08:49:12.830Z,5.25
2022-10-28T08:51:52.840Z,4.85
2022-10-28T08:54:39.796Z,4.53
2022-10-28T08:57:18.038Z,5.00
2022-10-28T08:59:46.123Z,4.75
2022-10-28T09:02:12.834Z,5.00
2022-10-28T09:04:43.424Z,4.40
2022-10-28T09:07:22.269Z,4.22
2022-10-28T09:09:51.434Z,4.60
2022-10-28T09:12:44.663Z,4.78
2022-10-28T09:15:23.627Z,4.95
2022-10-28T09:17:58.837Z,4.78
2022-10-28T09:20:55.045Z,4.75
2022-10-28T09:23:23.654Z,4.18
2022-10-28T09:26:05.013Z,4.38
2022-10-28T09:28:43.941Z,4.78
2022-10-28T09:31:49.295Z,4.90
2022-10-28T09:34:36.644Z,4.53
2022-10-28T09:37:19.978Z,4.22
2022-10-28T09:40:01.431Z,4.57
2022-10-28T09:45:21.792Z,4.07
2022-10-28T09:47:58.478Z,4.22
2022-10-28T09:50:29.986Z,4.22
2022-10-28T09:53:08.378Z,4.32
2022-10-28T09:55:35.297Z,4.30
2022-10-28T09:58:04.441Z,4.07
2022-10-28T10:00:32.013Z,4.07
2022-10-28T10:02:59.372Z,4.38
2022-10-28T10:05:27.176Z,4.88
2022-10-28T10:08:06.990Z,4.30
2022-10-28T10:10:47.875Z,4.30
2022-10-28T10:13:18.843Z,4.25
2022-10-28T10:15:51.101Z,4.05
2022-10-28T10:18:30.595Z,4.25
2022-10-28T10:21:01.244Z,4.22
2022-10-28T10:23:31.362Z,4.15
2022-10-28T10:26:12.293Z,4.25
2022-10-28T10:28:48.486Z,5.05
2022-10-28T10:31:21.475Z,4.38
2022-10-28T10:33:51.313Z,4.22
2022-10-28T10:36:23.689Z,4.05
2022-10-28T10:38:58.739Z,4.13
2022-10-28T10:41:44.805Z,4.45
2022-10-28T10:44:30.104Z,4.10
2022-10-28T10:47:04.912Z,3.92
2022-10-28T10:49:36.959Z,3.92
2022-10-28T10:52:16.717Z,4.30
2022-10-28T10:54:57.283Z,3.80
2022-10-28T10:57:25.780Z,4.50
2022-10-28T10:59:54.591Z,4.57
2022-10-28T11:02:32.502Z,4.20
2022-10-28T11:05:09.266Z,3.67
2022-10-28T11:07:40.458Z,4.10
2022-10-28T11:10:28.070Z,3.92
2022-10-28T11:12:57.848Z,3.83
2022-10-28T11:15:28.498Z,3.55
2022-10-28T11:17:55.581Z,3.80
2022-10-28T11:20:26.126Z,3.90
2022-10-28T11:23:14.993Z,4.45
2022-10-28T11:25:50.143Z,4.32
2022-10-28T11:28:50.995Z,4.65
2022-10-28T11:31:44.415Z,4.20
2022-10-28T11:34:56.087Z,3.95
2022-10-28T11:37:37.035Z,3.90
2022-10-28T11:40:29.054Z,4.28
2022-10-28T11:43:17.157Z,4.93
2022-10-28T11:46:03.779Z,3.75
2022-10-28T11:48:45.405Z,3.92
2022-10-28T11:51:47.542Z,4.50
2022-10-28T11:54:33.097Z,3.90
2022-10-28T11:57:09.171Z,4.13
2022-10-28T12:00:00.044Z,3.80
2022-10-28T12:02:53.186Z,4.20
2022-10-28T12:05:30.676Z,3.55
2022-10-28T12:08:15.774Z,4.05
2022-10-28T12:11:11.852Z,4.25
2022-10-28T12:14:05.412Z,4.15
2022-10-28T12:16:54.056Z,3.95
2022-10-28T12:19:32.596Z,3.88
2022-10-28T12:22:09.047Z,3.67
2022-10-28T12:24:39.018Z,3.53
2022-10-28T12:27:36.197Z,3.30
2022-10-28T12:30:20.951Z,3.47
2022-10-28T12:33:04.071Z,3.72
2022-10-28T12:35:36.402Z,3.90
2022-10-28T12:38:32.400Z,3.70
2022-10-28T12:41:13.042Z,3.90
2022-10-28T12:43:47.348Z,3.70
2022-10-28T12:46:30.387Z,3.70
2022-10-28T12:49:05.379Z,3.88
2022-10-28T12:51:41.362Z,3.40
2022-10-28T12:54:15.002Z,4.10
2022-10-28T12:56:50.594Z,3.50
2022-10-28T12:59:41.585Z,4.22
2022-10-28T13:02:22.159Z,4.55
2022-10-28T13:04:49.739Z,4.68
2022-10-28T13:08:01.102Z,4.15
2022-10-28T13:10:42.186Z,4.30
2022-10-28T13:13:41.773Z,3.80
2022-10-28T13:16:08.598Z,4.00
2022-10-28T13:19:26.220Z,4.13
2022-10-28T13:22:09.347Z,4.43
2022-10-28T13:24:36.276Z,4.60
2022-10-28T13:27:05.257Z,4.25
2022-10-28T13:29:34.848Z,4.15
2022-10-28T13:32:02.072Z,4.88
2022-10-28T13:34:37.681Z,4.40
2022-10-28T13:37:07.707Z,3.88
2022-10-28T13:39:37.463Z,5.03
2022-10-28T13:42:13.275Z,4.43
2022-10-28T13:45:29.063Z,4.18
2022-10-28T13:48:38.534Z,3.65
2022-10-28T13:51:11.366Z,4.25
2022-10-28T13:53:47.239Z,4.10
2022-10-28T13:56:20.857Z,3.75
2022-10-28T13:58:57.567Z,4.40
2022-10-28T14:02:01.287Z,4.70
2022-10-28T14:04:34.227Z,4.50
2022-10-28T14:07:22.953Z,4.32
2022-10-28T14:09:53.504Z,4.53
2022-10-28T14:12:25.622Z,4.00
2022-10-28T14:15:07.381Z,4.05
2022-10-28T14:17:39.661Z,4.60
2022-10-28T14:20:43.318Z,4.80
2022-10-28T14:23:21.976Z,4.70
2022-10-28T14:25:51.776Z,3.83
2022-10-28T14:28:27.641Z,4.50
2022-10-28T14:31:12.420Z,4.18
2022-10-28T14:33:51.340Z,4.32
2022-10-28T14:36:18.191Z,4.35
2022-10-28T14:39:03.777Z,4.50
2022-10-28T14:41:54.616Z,4.30
2022-10-28T14:44:47.658Z,4.45
2022-10-28T14:47:39.330Z,4.38
2022-10-28T14:50:21.446Z,4.45
2022-10-28T14:52:50.736Z,4.57
2022-10-28T14:55:30.812Z,5.20
2022-10-28T14:58:22.689Z,4.82
2022-10-28T15:01:20.651Z,4.93
2022-10-28T15:03:52.053Z,5.50
2022-10-28T15:06:21.886Z,4.43
2022-10-28T15:08:48.806Z,4.97
2022-10-28T15:11:17.805Z,5.07
2022-10-28T15:13:44.617Z,4.50
2022-10-28T15:16:23.486Z,4.53
2022-10-28T15:18:53.379Z,4.40
2022-10-28T15:21:22.479Z,5.18
2022-10-28T15:24:00.457Z,4.50
2022-10-28T15:26:27.513Z,4.55
2022-10-28T15:28:55.801Z,4.30
2022-10-28T15:31:22.857Z,4.72
2022-10-28T15:33:49.630Z,4.25
2022-10-28T15:36:22.218Z,4.57
2022-10-28T15:39:06.287Z,4.63
2022-10-28T15:41:52.415Z,4.10
2022-10-28T15:44:37.624Z,4.53
2022-10-28T15:47:35.374Z,4.97
2022-10-28T15:50:15.696Z,4.43
2022-10-28T15:52:44.085Z,4.50
2022-10-28T15:55:19.829Z,4.68
2022-10-28T15:57:48.992Z,4.50
2022-10-28T16:00:34.584Z,5.05
2022-10-28T16:03:02.633Z,4.45
2022-10-28T16:05:32.519Z,4.57
2022-10-28T16:08:01.864Z,4.70
2022-10-28T16:10:34.860Z,4.45
2022-10-28T16:13:07.626Z,4.72
2022-10-28T16:15:48.278Z,4.72
2022-10-28T16:18:15.559Z,5.53
2022-10-28T16:20:44.520Z,4.72
2022-10-28T16:23:16.735Z,5.07
2022-10-28T16:25:43.785Z,4.90
2022-10-28T16:28:19.763Z,4.45
2022-10-28T16:30:46.763Z,5.30
2022-10-28T16:33:13.531Z,4.75
2022-10-28T16:35:40.329Z,5.18
2022-10-28T16:38:12.778Z,5.25
2022-10-28T16:40:55.055Z,4.50
2022-10-28T16:43:24.549Z,4.93
2022-10-28T16:45:53.081Z,4.85
2022-10-28T16:48:22.186Z,5.30
2022-10-28T16:50:59.342Z,4.70
2022-10-28T16:53:26.263Z,5.10
2022-10-28T16:55:58.765Z,4.65
2022-10-28T16:58:27.056Z,5.03
2022-10-28T17:00:55.074Z,4.60
2022-10-28T17:03:22.350Z,5.88
2022-10-28T17:05:49.349Z,4.28
2022-10-28T17:08:16.100Z,4.70
2022-10-28T17:10:43.685Z,3.88
2022-10-28T17:13:15.119Z,4.38
2022-10-28T17:15:42.878Z,4.30
2022-10-28T17:18:11.379Z,4.50
2022-10-28T17:20:38.383Z,5.22
2022-10-28T17:23:05.836Z,4.40
2022-10-28T17:25:33.020Z,4.70
2022-10-28T17:27:59.783Z,5.10
2022-10-28T17:30:26.634Z,4.97
2022-10-28T17:32:54.221Z,5.05
2022-10-28T17:35:22.523Z,4.40
2022-10-28T17:37:49.585Z,4.20
2022-10-28T17:40:16.447Z,4.45
2022-10-28T17:42:43.187Z,4.70
2022-10-28T17:45:10.852Z,4.20
2022-10-28T17:47:37.734Z,4.38
2022-10-28T17:50:04.938Z,5.22
2022-10-28T17:52:35.687Z,5.40
2022-10-28T17:55:05.539Z,4.10
2022-10-28T17:57:32.285Z,4.93
2022-10-28T17:59:59.121Z,4.80
2022-10-28T18:02:26.159Z,4.65
2022-10-28T18:04:52.981Z,3.95
2022-10-28T18:07:19.735Z,4.55
2022-10-28T18:09:46.617Z,4.68
2022-10-28T18:12:13.370Z,4.60
2022-10-28T18:14:40.225Z,4.35
2022-10-28T18:17:07.124Z,4.38
2022-10-28T18:19:33.961Z,4.95
2022-10-28T18:22:00.731Z,4.85
2022-10-28T18:24:27.502Z,4.38
2022-10-28T18:26:55.855Z,4.57
2022-10-28T18:29:22.692Z,4.65
2022-10-28T18:31:49.709Z,4.00
2022-10-28T18:34:16.881Z,4.15
2022-10-28T18:36:43.984Z,4.07
2022-10-28T18:39:10.798Z,4.43
2022-10-28T18:41:41.850Z,4.93
2022-10-28T18:44:17.415Z,5.03
2022-10-28T18:46:45.834Z,5.07
2022-10-28T18:49:12.675Z,5.35
2022-10-28T18:51:39.579Z,5.40
2022-10-28T18:54:06.393Z,4.30
2022-10-28T18:56:34.333Z,4.88
2022-10-28T18:59:03.496Z,4.50
2022-10-28T19:01:31.806Z,4.45
2022-10-28T19:04:01.355Z,4.45
2022-10-28T19:06:32.312Z,5.00
2022-10-28T19:09:01.649Z,4.78
2022-10-28T19:11:32.624Z,4.70
2022-10-28T19:14:01.207Z,4.45
2022-10-28T19:16:28.732Z,4.53
2022-10-28T19:18:57.235Z,4.72
2022-10-28T19:21:25.067Z,4.55
2022-10-28T19:23:51.922Z,4.85
2022-10-28T19:26:19.344Z,4.18
2022-10-28T19:28:48.047Z,4.68
2022-10-28T19:31:17.702Z,4.80
2022-10-28T19:33:45.366Z,4.20
2022-10-28T19:36:18.964Z,4.28
2022-10-28T19:38:47.871Z,5.00
2022-10-28T19:41:17.157Z,4.70
2022-10-28T19:43:44.868Z,3.72
2022-10-28T19:46:13.294Z,5.15
2022-10-28T19:48:42.235Z,4.65
2022-10-28T19:51:14.868Z,5.50
2022-10-28T19:53:46.494Z,4.63
2022-10-28T19:58:40.932Z,4.70
2022-10-28T20:01:09.254Z,4.65
2022-10-28T20:03:38.592Z,5.45
2022-10-28T20:06:09.064Z,5.28
2022-10-28T20:08:37.601Z,4.68
2022-10-28T20:11:10.050Z,5.07
2022-10-28T20:13:37.045Z,4.75
2022-10-28T20:16:11.417Z,5.40
2022-10-28T20:18:38.569Z,5.13
2022-10-28T20:21:10.042Z,4.82
2022-10-28T20:23:38.559Z,5.43
2022-10-28T20:26:06.911Z,4.85
2022-10-28T20:28:34.550Z,4.93
2022-10-28T20:31:09.873Z,5.32
2022-10-28T20:33:38.626Z,4.95
2022-10-28T20:36:07.358Z,3.97
2022-10-28T20:38:34.731Z,4.97
2022-10-28T20:41:01.631Z,4.53
2022-10-28T20:43:29.360Z,5.22
2022-10-28T20:46:01.378Z,5.30
2022-10-28T20:48:30.310Z,4.85
2022-10-28T20:51:01.722Z,3.97
2022-10-28T20:53:33.209Z,4.85
2022-10-28T20:56:01.568Z,4.88
2022-10-28T20:58:30.935Z,4.43
2022-10-28T21:01:11.854Z,4.78
2022-10-28T21:03:40.922Z,5.30
2022-10-28T21:06:08.141Z,4.85
2022-10-28T21:08:34.980Z,5.18
2022-10-28T21:11:03.367Z,6.15
2022-10-28T21:13:30.792Z,5.45
2022-10-28T21:15:58.057Z,5.15
2022-10-28T21:18:25.301Z,5.03
2022-10-28T21:20:57.262Z,5.07
2022-10-28T21:23:24.562Z,5.55
2022-10-28T21:25:56.172Z,4.93
2022-10-28T21:28:23.517Z,5.78
2022-10-28T21:30:50.238Z,5.63
2022-10-28T21:33:18.924Z,4.93
2022-10-28T21:35:54.752Z,5.05
2022-10-28T21:38:21.711Z,5.18
2022-10-28T21:40:48.431Z,5.07
2022-10-28T21:43:15.719Z,5.15
2022-10-28T21:45:42.479Z,5.00
2022-10-28T21:48:09.227Z,5.38
2022-10-28T21:50:35.974Z,5.43
2022-10-28T21:53:04.050Z,5.10
2022-10-28T21:55:46.192Z,5.00
2022-10-28T21:58:14.040Z,5.55
2022-10-28T22:00:40.836Z,5.70
2022-10-28T22:03:07.746Z,5.93
2022-10-28T22:05:34.602Z,5.35
2022-10-28T22:08:04.427Z,4.85
2022-10-28T22:10:32.110Z,5.68
2022-10-28T22:12:59.081Z,5.07
2022-10-28T22:15:25.912Z,6.10
2022-10-28T22:17:52.820Z,5.30
2022-10-28T22:20:19.851Z,6.07
2022-10-28T22:22:46.654Z,5.30
2022-10-28T22:25:13.421Z,5.30
2022-10-28T22:27:40.273Z,5.32
2022-10-28T22:30:07.562Z,5.80
2022-10-28T22:32:34.321Z,5.03
2022-10-28T22:35:01.060Z,4.63
2022-10-28T22:37:27.814Z,4.87
2022-10-28T22:39:54.516Z,4.50
2022-10-28T22:42:21.348Z,5.13
2022-10-28T22:44:48.047Z,4.82
2022-10-28T22:47:14.726Z,5.47
2022-10-28T22:49:41.438Z,4.40
2022-10-28T22:52:08.147Z,5.50
2022-10-28T22:54:34.864Z,4.87
2022-10-28T22:57:01.797Z,5.10
2022-10-28T22:59:28.546Z,4.50
2022-10-28T23:01:55.474Z,4.97
2022-10-28T23:04:22.410Z,4.60
2022-10-28T23:06:49.254Z,4.53
2022-10-28T23:09:16.001Z,4.15
2022-10-28T23:11:42.796Z,4.80
2022-10-28T23:14:09.502Z,5.57
2022-10-28T23:16:36.257Z,4.97
2022-10-28T23:19:03.040Z,4.72
2022-10-28T23:21:29.816Z,6.03
2022-10-28T23:23:58.931Z,5.10
2022-10-28T23:26:27.902Z,4.97
2022-10-28T23:28:57.435Z,5.55
2022-10-28T23:31:24.349Z,5.33
2022-10-28T23:33:52.376Z,5.30
2022-10-28T23:36:19.090Z,4.77
2022-10-28T23:38:46.177Z,4.80
2022-10-28T23:41:16.128Z,5.55
2022-10-28T23:43:43.047Z,5.27
2022-10-28T23:46:10.775Z,4.90
2022-10-28T23:48:37.837Z,4.97
2022-10-28T23:51:04.804Z,5.70
2022-10-28T23:53:31.663Z,5.13
2022-10-28T23:55:58.812Z,4.87
2022-10-28T23:58:25.740Z,4.87
